Realpage Inc (RP) Latest Bloomsberg Price


Mffais Ranking #2470 Overall / #74 Industry
Industry: Application Software

Number of Companies: 118 (Ranking #1444 Overall/#42 Industry)
Inflow: $ 71,263 (K) (Ranking #1140 Overall/#37 Industry)
Outflow: $ -162,231 (K)
Mffais Flow: $ -90,968 (K) (Ranking #2470 Overall/#74 Industry)


Receive a FREE weekly executive review of stocks moving into the top 10, taking the top industy spot or moving up within their industry. Sent directly to your Inbox every Saturday. Sign up today and get last week's review immediately sent to you.

We value and respect your privacy. Please read our Terms and Conditions which states our firm commitment to your privacy. Your email address will not be shared with a third party, nor will it be sold or used for purposes other than subscription for the weekly review.

Owner CPOR Shares Action Qty Chg Invested (K) Total Current Value (K)
Shannon River Fund Management Llc 2016-09-30 723,385 New Holding 723,385 $ 18,106 $ 18,106
State Of New Jersey Common Pension Fund D 2016-09-30 350,000 New Holding 350,000 $ 8,760 $ 8,760
Thrax Management Llc 2016-09-30 147,218 New Holding 147,218 $ 3,684 $ 3,684
Raymond James Associates 2016-09-30 142,775 Added More 133,744 $ 3,347 $ 3,573
Arrowpoint Asset Management Llc 2016-09-30 1,540,974 Added More 127,070 $ 3,180 $ 38,570
Kames Capital Plc 2016-09-30 116,146 New Holding 116,146 $ 2,907 $ 2,907
Nicholas Investment Partners Lp 2016-09-30 111,973 New Holding 111,973 $ 2,802 $ 2,802
Everpoint Asset Management Llc 2016-09-30 110,000 New Holding 110,000 $ 2,753 $ 2,753
Arbor Capital Management Llc 2016-06-30 109,572 New Holding 109,572 $ 2,446 $ 2,446
Timpani Capital Management Llc 2016-09-30 88,472 New Holding 88,472 $ 2,214 $ 2,214
Emerald Acquisition Ltd 2016-09-30 78,651 Added More 77,016 $ 1,927 $ 1,968
Pnc Financial Services Group Inc 2016-09-30 75,769 Added More 75,465 $ 1,888 $ 1,896
Cortina Asset Management Llc 2016-09-30 983,215 Added More 69,536 $ 1,740 $ 24,609
Garelick Capital Partners Lp 2016-09-30 234,296 Added More 65,541 $ 1,640 $ 5,864
Rothschild Asset Management Inc 2016-09-30 928,071 Added More 63,078 $ 1,578 $ 23,229
Tygh Capital Management Inc 2016-09-30 207,729 Added More 39,145 $ 979 $ 5,199
Turner Investments L P 2016-09-30 38,000 New Holding 38,000 $ 951 $ 951
Sheets Smith Wealth Management 2016-09-30 32,301 New Holding 32,301 $ 808 $ 808
Marshall Wace Llp 2016-09-30 32,007 New Holding 32,007 $ 801 $ 801
Schonfeld Strategic Advisors Llc 2016-09-30 30,083 New Holding 30,083 $ 752 $ 752
Gsa Capital Partners Llp 2016-09-30 64,744 Added More 27,823 $ 696 $ 1,620
Sawgrass Asset Management Llc 2016-09-30 25,020 New Holding 25,020 $ 626 $ 626
Frontier Capital Management Co Llc 2016-09-30 461,498 Added More 24,173 $ 605 $ 11,551
Palisade Capital Management Llc Nj 2016-09-30 1,065,108 Added More 20,163 $ 504 $ 26,659
New Jersey Better Educational Savings Trust 2016-09-30 20,000 New Holding 20,000 $ 500 $ 500
William Blair Investment Management Llc 2016-09-30 306,558 Added More 18,948 $ 474 $ 7,673
Blair William Co Il 2016-09-30 55,789 Added More 16,284 $ 407 $ 1,396
Teachers Advisors Inc 2016-09-30 456,810 Added More 15,754 $ 394 $ 11,433
Symmetry Peak Management Llc 2016-09-30 15,000 New Holding 15,000 $ 375 $ 375
New York State Common Retirement Fund 2016-09-30 62,661 Added More 14,461 $ 361 $ 1,568
Parametric Portfolio Associates Llc 2016-09-30 142,688 Added More 14,373 $ 359 $ 3,571
Simcoe Capital Management Llc 2016-09-30 245,505 Added More 14,160 $ 354 $ 6,144
Capital Fund Management S A 2016-09-30 13,500 New Holding 13,500 $ 337 $ 337
Panagora Asset Management Inc 2016-09-30 351,432 Added More 12,774 $ 319 $ 8,796
Clinton Group Inc 2016-09-30 9,795 New Holding 9,795 $ 245 $ 245
Peak6 Investments L P 2016-09-30 9,708 New Holding 9,708 $ 242 $ 242
Simplex Trading Llc 2016-09-30 7,027 Added More 6,949 $ 173 $ 175
Sterling Capital Management Llc 2016-09-30 80,809 Added More 6,728 $ 168 $ 2,022
Sg Americas Securities Llc 2016-09-30 6,114 New Holding 6,114 $ 153 $ 153
Group One Trading L P 2016-09-30 3,200 New Holding 3,200 $ 80 $ 80
Cutler Group Lp 2016-09-30 3,600 Added More 3,100 $ 77 $ 90
Meeder Asset Management Inc 2016-09-30 2,867 New Holding 2,867 $ 71 $ 71
Blackrock Investment Management Llc 2016-09-30 203,967 Added More 2,312 $ 57 $ 5,105
Point72 Asia Hong Kong Ltd 2016-09-30 2,000 New Holding 2,000 $ 50 $ 50
Hillsdale Investment Management Inc 2016-09-30 19,200 Added More 2,000 $ 50 $ 480
Sei Investments Co 2016-09-30 164,325 Added More 1,886 $ 47 $ 4,113
Rhumbline Advisers 2016-09-30 56,982 Added More 1,625 $ 40 $ 1,426
Cupps Capital Management Llc 2016-09-30 1,570 New Holding 1,570 $ 39 $ 39
Eqis Capital Management Inc 2016-09-30 28,152 Added More 1,319 $ 33 $ 704
Legal General Group Plc 2016-09-30 14,599 Added More 1,226 $ 30 $ 365
Springbok Capital Management Llc 2016-09-30 1,217 New Holding 1,217 $ 30 $ 30
California State Teachers Retirement System 2016-09-30 114,458 Added More 1,100 $ 27 $ 2,864
Nn Investment Partners Holdings N V 2016-09-30 63,900 Added More 660 $ 16 $ 1,599
Quantbot Technologies Lp 2016-09-30 360 New Holding 360 $ 9 $ 9
Bronfman E L Rothschild L P 2016-09-30 2,101 Added More 337 $ 8 $ 52
Zurcher Kantonalbank Zurich Cantonalbank 2016-09-30 1,308 Added More 241 $ 6 $ 32
Stanford Investment Group Inc 2016-09-30 200 New Holding 200 $ 5 $ 5
Thompson Davis Co Inc 2016-09-30 150 New Holding 150 $ 3 $ 3
American International Group Inc 2016-09-30 31,167 Added More 47 $ 1 $ 780
Advisor Group Inc 2016-09-30 105 Added More 37 $ 0 $ 2
Ifp Advisors Inc 2016-09-30 11 New Holding 11 $ 0 $ 0
Brown Brothers Harriman Co 2016-09-30 136 No Change 0 $ 0 $ 3
Alphamark Advisors Llc 2016-09-30 36,900 No Change 0 $ 0 $ 923
Ladenburg Thalmann Financial Services Inc 2016-09-30 24 No Change 0 $ 0 $ 0
Mufg Americas Holdings Corp 2016-09-30 434 No Change 0 $ 0 $ 10
Woodstock Corp 2016-09-30 9,499 No Change 0 $ 0 $ 237
Nisa Investment Advisors Llc 2016-09-30 900 No Change 0 $ 0 $ 22
Amp Capital Investors Ltd 2016-09-30 18,700 No Change 0 $ 0 $ 468
Dupont Capital Management Corp 2016-09-30 14,181 No Change 0 $ 0 $ 354
Checchi Capital Advisers Llc 2016-09-30 0 Sold All -10 $ -0 $ 0
Cable Hill Partners Llc 2016-09-30 236 Sold Some -11 $ -0 $ 5
Blackrock Inc 2016-09-30 5,172 Sold Some -63 $ -1 $ 129
Envestnet Asset Management Inc 2016-09-30 1,908 Sold Some -145 $ -3 $ 47
Rs Investment Management Co Llc 2016-06-30 781,881 Sold Some -226 $ -5 $ 17,459
Us Bancorp De 2016-09-30 3,982 Sold Some -541 $ -13 $ 99
Creative Planning 2016-09-30 0 Sold All -587 $ -14 $ 0
Thrivent Financial For Lutherans 2016-09-30 136,220 Sold Some -820 $ -20 $ 3,409
Nationwide Fund Advisors 2016-09-30 57,270 Sold Some -835 $ -20 $ 1,433
Walleye Trading Llc 2016-09-30 0 Sold All -900 $ -22 $ 0
Dimensional Fund Advisors Lp 2016-09-30 14,061 Sold Some -1,342 $ -33 $ 351
First Mercantile Trust Co 2016-09-30 11,300 Sold Some -1,400 $ -35 $ 282
Nuveen Asset Management Llc 2016-09-30 58,980 Sold Some -1,432 $ -35 $ 1,476
Swiss National Bank 2016-09-30 91,600 Sold Some -2,100 $ -52 $ 2,292
Acrospire Investment Management Llc 2016-09-30 800 Sold Some -2,100 $ -52 $ 20
Fny Managed Accounts Llc 2016-09-30 0 Sold All -2,500 $ -62 $ 0
Hancock Holding Co 2016-09-30 396,590 Sold Some -3,050 $ -76 $ 9,926
Horizon Kinetics Llc 2016-09-30 15,954 Sold Some -3,194 $ -79 $ 399
Pacad Investment Ltd 2016-09-30 4,700 Sold Some -4,100 $ -102 $ 117
Northern Trust Corp 2016-09-30 750,626 Sold Some -4,155 $ -104 $ 18,788
Tower Research Capital Llc Trc 2016-09-30 0 Sold All -4,370 $ -109 $ 0
Tudor Investment Corp Et Al 2016-09-30 31,023 Sold Some -7,336 $ -183 $ 776
Teacher Retirement System Of Texas 2016-09-30 0 Sold All -7,711 $ -193 $ 0
Princeton Alpha Management Lp 2016-09-30 7,801 Sold Some -7,730 $ -193 $ 195
Globeflex Capital L P 2016-09-30 69,906 Sold Some -8,302 $ -207 $ 1,749
Jacobs Levy Equity Management Inc 2016-09-30 0 Sold All -10,600 $ -265 $ 0
Tfs Capital Llc 2016-09-30 0 Sold All -10,908 $ -273 $ 0
Cubist Systematic Strategies Llc 2016-09-30 1,730 Sold Some -12,204 $ -305 $ 43
Trexquant Investment Lp 2016-09-30 8,766 Sold Some -12,824 $ -320 $ 219
Strs Ohio 2016-09-30 0 Sold All -13,700 $ -342 $ 0
Airain Ltd 2016-09-30 14,056 Sold Some -15,531 $ -388 $ 351
Diam Co Ltd 2016-09-30 85,835 Sold Some -15,791 $ -395 $ 2,148
Financial Counselors Inc 2016-06-30 11,000 Sold Some -22,600 $ -504 $ 245
Oberweis Asset Management Inc 2016-09-30 0 Sold All -23,400 $ -585 $ 0
Disciplined Growth Investors Inc Mn 2016-09-30 1,872,415 Sold Some -23,975 $ -600 $ 46,866
Eagle Asset Management Inc 2016-09-30 2,017,811 Sold Some -24,913 $ -623 $ 50,505
Zacks Investment Management 2016-09-30 55,609 Sold Some -30,013 $ -751 $ 1,391
Dynamic Technology Lab Private Ltd 2016-09-30 0 Sold All -31,509 $ -788 $ 0
Harber Asset Management Llc 2016-09-30 0 Sold All -32,135 $ -804 $ 0
A R T Advisors Llc 2016-09-30 0 Sold All -40,692 $ -1,018 $ 0
Highbridge Capital Management Llc 2016-09-30 0 Sold All -41,683 $ -1,043 $ 0
Menta Capital Llc 2016-09-30 0 Sold All -41,879 $ -1,048 $ 0
Weatherbie Capital Llc 2016-09-30 614,641 Sold Some -50,238 $ -1,257 $ 15,384
Bogle Investment Management L P De 2016-09-30 0 Sold All -57,256 $ -1,433 $ 0
Kornitzer Capital Management Inc Ks 2016-09-30 262,765 Sold Some -72,371 $ -1,811 $ 6,577
Cornerstone Capital Management Holdings Llc 2016-09-30 18,913 Sold Some -84,039 $ -2,103 $ 473
North Run Capital Lp 2016-09-30 990,000 Sold Some -546,162 $ -13,670 $ 24,779
Stockbridge Partners Llc 2016-09-30 3,766,615 Sold Some -1,179,563 $ -29,524 $ 94,278
Jhl Capital Group Llc 2016-09-30 0 Sold All -4,025,000 $ -100,745 $ 0